Time;durP1;ratioP1;P1;durP2;ratioP2;P2;SDS_P1;SDS_P2;PMS_P1;PMS_P2;Temp;Humidity;BMP_temperature;BMP_pressure;BME280_temperature;BME280_humidity;BME280_pressure;Samples;Min_cycle;Max_cycle;Signal;HPM_P1;HPM_P2
2022/09/03 00:02:16;;;;;;;;;;;17.90;59.70;;;13.87;93.89;95245.94;4994361;28;19983;-48
2022/09/03 00:05:08;;;;;;;;;;;17.90;59.70;;;13.92;93.63;95253.91;4933943;28;20458;-50
2022/09/03 00:08:13;;;;;;;;;;;18.00;59.70;;;13.99;93.32;95261.56;5006837;28;19912;-47
2022/09/03 00:10:53;;;;;;;;;;;18.10;59.80;;;14.06;93.38;95267.31;4989016;28;19908;-50
2022/09/03 00:13:38;;;;;;;;;;;18.10;59.70;;;14.12;92.90;95272.28;4994781;28;19967;-45
2022/09/03 00:16:21;;;;;;;;;;;18.20;60.40;;;14.18;92.42;95277.56;4976638;28;19979;-45
2022/09/03 00:18:56;;;;;;;;;;;18.30;59.80;;;14.25;92.21;95275.28;4975510;28;19916;-46
2022/09/03 00:21:43;;;;;;;;;;;18.30;59.80;;;14.30;92.09;95275.22;4979475;28;19944;-48
2022/09/03 00:24:15;;;;;;;;;;;18.40;59.70;;;14.34;91.78;95274.31;4993788;28;19958;-46
2022/09/03 00:26:53;;;;;;;;;;;18.40;59.60;;;14.36;92.07;95274.03;4981433;28;19914;-44
2022/09/03 00:29:31;;;;;;;;;;;18.40;59.60;;;14.37;91.67;95278.28;4989036;28;19915;-44
2022/09/03 00:32:08;;;;;;;;;;;18.50;59.90;;;14.38;92.16;95277.19;4974840;28;20368;-44
2022/09/03 00:34:48;;;;;;;;;;;18.50;59.60;;;14.39;91.90;95280.69;4973792;28;20570;-46
2022/09/03 00:37:13;;;;;;;;;;;18.50;59.60;;;14.39;91.88;95286.06;4969253;28;19910;-45
2022/09/03 00:39:43;;;;;;;;;;;18.50;59.60;;;14.37;92.64;95307.75;4991111;28;19916;-45
2022/09/03 00:42:36;;;;;;;;;;;18.50;59.60;;;14.36;93.18;95322.25;4991629;28;19914;-45
2022/09/03 00:45:47;;;;;;;;;;;18.50;59.60;;;14.38;94.43;95338.03;4990159;28;19910;-46
2022/09/03 00:48:53;;;;;;;;;;;18.50;59.80;;;14.42;95.37;95344.41;4991847;28;19913;-46
2022/09/03 00:51:50;;;;;;;;;;;18.50;59.90;;;14.45;95.52;95328.53;4973479;28;19913;-46
2022/09/03 00:54:48;;;;;;;;;;;18.50;60.00;;;14.52;95.35;95320.94;4943348;28;19909;-46
2022/09/03 00:57:55;;;;;;;;;;;18.50;60.10;;;14.54;95.63;95323.28;4973007;28;19913;-45
2022/09/03 01:00:22;;;;;;;;;;;18.60;60.30;;;14.56;96.15;95323.81;4991418;28;19917;-44
2022/09/03 01:03:21;;;;;;;;;;;18.60;60.30;;;14.63;96.43;95320.72;4990423;28;19936;-44
2022/09/03 01:06:11;;;;;;;;;;;18.60;60.40;;;14.66;96.79;95323.63;4991065;28;19909;-44
2022/09/03 01:08:58;;;;;;;;;;;18.60;60.60;;;14.71;96.44;95322.75;4990322;28;19910;-44
2022/09/03 01:11:58;;;;;;;;;;;18.50;60.70;;;14.71;96.58;95315.50;4991443;28;19957;-44
2022/09/03 01:15:06;;;;;;;;;;;18.50;60.90;;;14.71;97.14;95303.97;4977302;28;20346;-44
2022/09/03 01:18:08;;;;;;;;;;;18.50;61.00;;;14.73;97.01;95312.53;4972332;28;20004;-45
2022/09/03 01:21:12;;;;;;;;;;;18.50;61.10;;;14.71;97.10;95312.03;4989341;28;19921;-48
2022/09/03 01:23:56;;;;;;;;;;;18.50;62.00;;;14.68;98.62;95296.53;5010407;28;19909;-50
2022/09/03 01:27:07;;;;;;;;;;;18.50;61.30;;;14.66;98.79;95291.44;5006369;28;19960;-50
2022/09/03 01:29:47;;;;;;;;;;;18.50;61.30;;;14.66;98.30;95294.13;4975492;28;20391;-43
2022/09/03 01:32:24;;;;;;;;;;;18.40;61.40;;;14.65;98.96;95295.22;4988299;28;19913;-45
2022/09/03 01:35:14;;;;;;;;;;;18.40;61.50;;;14.63;99.37;95285.88;4990361;28;19959;-45
2022/09/03 01:38:09;;;;;;;;;;;18.40;61.60;;;14.56;99.68;95273.66;4990551;28;19949;-45
2022/09/03 01:40:48;;;;;;;;;;;18.40;61.70;;;14.52;100.00;95271.91;4986043;28;19918;-44
2022/09/03 01:43:50;;;;;;;;;;;18.40;61.80;;;14.56;100.00;95264.84;4989539;28;19913;-47
2022/09/03 01:46:38;;;;;;;;;;;18.30;61.90;;;14.54;100.00;95257.13;4998958;28;20331;-47
2022/09/03 01:49:39;;;;;;;;;;;18.40;62.00;;;14.53;100.00;95258.19;5012809;28;19935;-47
2022/09/03 01:52:19;;;;;;;;;;;18.30;62.00;;;14.52;100.00;95261.19;4996111;28;20002;-48
2022/09/03 01:55:29;;;;;;;;;;;18.30;62.10;;;14.51;100.00;95276.47;4993921;28;20434;-46
2022/09/03 01:58:36;;;;;;;;;;;18.30;62.20;;;14.47;100.00;95286.13;4994051;28;20008;-45
2022/09/03 02:01:23;;;;;;;;;;;18.30;62.30;;;14.47;100.00;95285.34;4947143;28;19920;-45
2022/09/03 02:03:49;;;;;;;;;;;18.20;62.30;;;14.44;100.00;95267.97;4987614;28;19959;-45
2022/09/03 02:06:19;;;;;;;;;;;18.20;62.50;;;14.43;100.00;95268.28;4987020;28;19915;-51
2022/09/03 02:08:45;;;;;;;;;;;18.20;62.50;;;14.41;100.00;95273.91;4991803;28;20006;-46
2022/09/03 02:11:14;;;;;;;;;;;18.30;62.70;;;14.44;100.00;95272.53;4994379;28;19909;-45
2022/09/03 02:13:42;;;;;;;;;;;18.30;62.70;;;14.46;100.00;95270.38;4995023;28;20357;-44
2022/09/03 02:16:32;;;;;;;;;;;18.30;62.70;;;14.50;100.00;95280.19;4977811;28;20060;-44
2022/09/03 02:19:06;;;;;;;;;;;18.30;62.90;;;14.49;100.00;95277.81;5015950;28;20002;-45
2022/09/03 02:21:37;;;;;;;;;;;18.30;62.90;;;14.50;100.00;95282.88;5008138;28;20054;-44
2022/09/03 02:24:06;;;;;;;;;;;18.30;62.90;;;14.49;100.00;95275.13;5015667;28;19912;-45
2022/09/03 02:26:34;;;;;;;;;;;18.40;63.00;;;14.50;100.00;95282.88;5007092;28;20399;-45
2022/09/03 02:29:01;;;;;;;;;;;18.40;63.80;;;14.49;100.00;95289.31;4996205;28;19964;-46
2022/09/03 02:31:28;;;;;;;;;;;18.40;63.00;;;14.51;100.00;95289.88;4996147;28;19995;-50
2022/09/03 02:33:56;;;;;;;;;;;18.40;63.10;;;14.52;100.00;95290.66;5005255;28;19962;-48
2022/09/03 02:36:44;;;;;;;;;;;18.40;63.10;;;14.52;100.00;95296.81;4996152;28;20275;-47
2022/09/03 02:39:12;;;;;;;;;;;18.50;63.20;;;14.52;100.00;95299.47;5005473;28;20403;-51
2022/09/03 02:41:39;;;;;;;;;;;18.40;63.20;;;14.50;100.00;95304.31;5012449;28;19920;-46
2022/09/03 02:44:30;;;;;;;;;;;18.50;63.20;;;14.56;100.00;95303.16;5012116;28;19924;-47
2022/09/03 02:47:03;;;;;;;;;;;18.50;63.30;;;14.54;100.00;95308.03;4987331;28;19913;-49
2022/09/03 02:49:31;;;;;;;;;;;18.50;63.30;;;14.62;100.00;95297.72;4996082;28;19913;-47
2022/09/03 02:52:04;;;;;;;;;;;18.50;63.40;;;14.65;100.00;95303.28;4998294;28;19908;-47
2022/09/03 02:54:34;;;;;;;;;;;18.50;63.40;;;14.66;100.00;95294.13;5015944;28;20282;-46
2022/09/03 02:57:11;;;;;;;;;;;18.60;63.50;;;14.69;100.00;95292.75;5011811;28;19909;-50
2022/09/03 02:59:44;;;;;;;;;;;18.60;63.50;;;14.70;100.00;95303.19;5014597;28;19924;-49
2022/09/03 03:02:12;;;;;;;;;;;18.60;63.50;;;14.70;100.00;95302.41;5024340;28;19909;-46
2022/09/03 03:04:44;;;;;;;;;;;18.60;63.50;;;14.70;100.00;95299.72;5011487;28;19909;-46
2022/09/03 03:07:10;;;;;;;;;;;18.60;63.50;;;14.69;100.00;95314.19;4995502;28;19913;-45
2022/09/03 03:09:41;;;;;;;;;;;18.70;63.60;;;14.64;100.00;95311.63;5010990;28;20043;-45
2022/09/03 03:12:10;;;;;;;;;;;18.70;64.00;;;14.68;100.00;95307.25;4995302;28;19920;-45
2022/09/03 03:14:42;;;;;;;;;;;18.60;64.10;;;14.70;100.00;95315.81;4997096;28;20418;-47
2022/09/03 03:17:08;;;;;;;;;;;18.70;64.30;;;14.71;100.00;95318.16;5033017;28;19944;-46
2022/09/03 03:19:34;;;;;;;;;;;18.70;64.50;;;14.73;100.00;95317.88;5032109;28;19956;-47
2022/09/03 03:22:02;;;;;;;;;;;18.70;64.60;;;14.75;100.00;95335.25;4997949;28;20004;-47
2022/09/03 03:24:28;;;;;;;;;;;18.60;64.60;;;14.78;100.00;95337.31;4994739;28;20003;-49
2022/09/03 03:27:00;;;;;;;;;;;18.60;64.60;;;14.81;100.00;95330.59;5010651;28;20012;-45
2022/09/03 03:29:32;;;;;;;;;;;18.70;64.60;;;14.81;100.00;95333.25;5013070;28;19909;-45
2022/09/03 03:31:58;;;;;;;;;;;18.70;64.60;;;14.82;100.00;95334.84;5014615;28;19909;-47
2022/09/03 03:34:27;;;;;;;;;;;18.70;64.60;;;14.83;100.00;95343.72;4994658;28;19916;-47
2022/09/03 03:36:59;;;;;;;;;;;18.70;64.50;;;14.80;100.00;95348.56;4994672;28;19920;-46
2022/09/03 03:39:25;;;;;;;;;;;18.70;64.50;;;14.81;100.00;95352.03;5011785;28;19935;-45
2022/09/03 03:41:57;;;;;;;;;;;18.70;64.50;;;14.81;100.00;95346.66;5011148;28;19987;-48
2022/09/03 03:44:23;;;;;;;;;;;18.70;64.50;;;14.80;100.00;95353.94;4993847;28;19913;-49
2022/09/03 03:46:49;;;;;;;;;;;18.70;64.50;;;14.81;100.00;95352.03;5027089;28;19912;-49
2022/09/03 03:49:14;;;;;;;;;;;18.70;64.50;;;14.84;100.00;95353.34;5032138;28;19908;-46
2022/09/03 03:51:46;;;;;;;;;;;18.70;64.60;;;14.81;100.00;95363.56;5022498;28;20500;-45
2022/09/03 03:54:12;;;;;;;;;;;18.70;64.60;;;14.81;100.00;95363.56;4993946;28;20379;-45
2022/09/03 03:56:40;;;;;;;;;;;18.80;64.70;;;14.82;100.00;95367.03;5010625;28;19999;-45
2022/09/03 03:59:09;;;;;;;;;;;18.70;64.70;;;14.83;100.00;95365.94;4977592;28;19916;-47
2022/09/03 04:01:37;;;;;;;;;;;18.80;65.50;;;14.81;100.00;95371.59;4994314;28;19917;-45
2022/09/03 04:04:21;;;;;;;;;;;18.80;64.80;;;14.81;100.00;95368.91;5010457;28;19959;-46
2022/09/03 04:07:09;;;;;;;;;;;18.70;64.70;;;14.81;100.00;95371.59;4994146;28;19909;-46
2022/09/03 04:09:36;;;;;;;;;;;18.70;64.80;;;14.83;100.00;95381.25;5006570;28;19915;-45
2022/09/03 04:12:08;;;;;;;;;;;18.80;64.90;;;14.83;100.00;95368.63;4993980;28;20074;-47
2022/09/03 04:14:37;;;;;;;;;;;18.80;64.90;;;14.84;100.00;95367.53;5009694;28;19920;-47
2022/09/03 04:17:03;;;;;;;;;;;18.80;64.90;;;14.86;100.00;95365.34;5000538;28;19917;-46
2022/09/03 04:19:29;;;;;;;;;;;18.80;64.90;;;14.87;100.00;95364.25;5008828;28;19909;-45
2022/09/03 04:21:55;;;;;;;;;;;18.80;64.80;;;14.86;100.00;95354.63;4976422;28;19916;-46
2022/09/03 04:24:21;;;;;;;;;;;18.80;64.80;;;14.86;100.00;95354.63;5010441;28;19909;-47
2022/09/03 04:26:49;;;;;;;;;;;18.80;64.80;;;14.83;100.00;95357.13;5010572;28;19959;-49
2022/09/03 04:29:20;;;;;;;;;;;18.80;64.70;;;14.81;100.00;95352.03;4991155;28;19909;-47
2022/09/03 04:34:31;;;;;;;;;;;18.80;64.70;;;14.79;100.00;95349.66;4999021;28;20378;-48
2022/09/03 04:36:59;;;;;;;;;;;18.80;64.80;;;14.76;100.00;95341.41;4978231;28;19913;-52
2022/09/03 04:39:25;;;;;;;;;;;18.80;64.80;;;14.74;100.00;95347.06;4983543;28;20442;-52
2022/09/03 04:41:51;;;;;;;;;;;18.80;64.80;;;14.71;100.00;95338.81;5030361;28;19987;-51
2022/09/03 04:44:17;;;;;;;;;;;18.80;64.80;;;14.70;100.00;95345.28;5008606;28;19923;-51
2022/09/03 04:46:48;;;;;;;;;;;18.70;64.80;;;14.69;100.00;95351.72;5000441;28;19913;-52
2022/09/03 04:49:14;;;;;;;;;;;18.70;64.90;;;14.68;100.00;95356.28;5011495;28;20263;-49
2022/09/03 04:51:40;;;;;;;;;;;18.70;64.80;;;14.64;100.00;95351.84;5010201;28;19920;-50
2022/09/03 04:54:09;;;;;;;;;;;18.70;64.90;;;14.62;100.00;95351.31;5010677;28;20338;-52
2022/09/03 04:56:43;;;;;;;;;;;18.70;65.00;;;14.62;100.00;95354.78;5010831;28;19998;-50
2022/09/03 04:59:09;;;;;;;;;;;18.70;65.00;;;14.63;100.00;95347.53;5030469;28;20007;-52
2022/09/03 05:01:38;;;;;;;;;;;18.70;65.00;;;14.61;100.00;95345.16;5030564;28;20011;-52
2022/09/03 05:04:08;;;;;;;;;;;18.70;65.00;;;14.62;100.00;95354.78;5011434;28;19928;-52
2022/09/03 05:06:35;;;;;;;;;;;18.70;65.00;;;14.65;100.00;95346.16;4993691;28;20466;-52
2022/09/03 05:09:03;;;;;;;;;;;18.70;65.10;;;14.67;100.00;95345.88;4992810;28;19909;-52
2022/09/03 05:11:29;;;;;;;;;;;18.70;65.20;;;14.64;100.00;95355.31;4992075;28;19928;-50
2022/09/03 05:14:00;;;;;;;;;;;18.70;65.20;;;14.66;100.00;95350.41;5005655;22;19917;-46
2022/09/03 05:16:30;;;;;;;;;;;18.70;65.20;;;14.71;100.00;95355.69;5013583;28;19921;-48
2022/09/03 05:18:59;;;;;;;;;;;18.70;65.30;;;14.70;100.00;95356.00;5003001;28;20379;-48
2022/09/03 05:21:26;;;;;;;;;;;18.70;65.30;;;14.71;100.00;95362.94;5015102;28;19919;-52
2022/09/03 05:23:53;;;;;;;;;;;18.80;65.40;;;14.74;100.00;95360.47;5026645;28;20283;-46
2022/09/03 05:26:23;;;;;;;;;;;18.80;65.40;;;14.78;100.00;95361.47;5026594;28;20652;-50
2022/09/03 05:28:55;;;;;;;;;;;18.80;65.30;;;14.78;100.00;95363.34;5010684;28;19960;-47
2022/09/03 05:31:30;;;;;;;;;;;18.90;65.40;;;14.80;100.00;95361.19;5025762;28;19920;-46
2022/09/03 05:34:00;;;;;;;;;;;18.90;65.30;;;14.80;100.00;95361.19;5008947;28;20269;-48
2022/09/03 05:36:37;;;;;;;;;;;18.90;65.30;;;14.78;100.00;95358.00;5005772;28;19951;-45
2022/09/03 05:39:04;;;;;;;;;;;18.90;65.40;;;14.72;100.00;95365.31;5010639;28;19909;-47
2022/09/03 05:41:34;;;;;;;;;;;18.90;65.60;;;14.77;100.00;95359.09;5013092;28;19909;-48
2022/09/03 05:43:59;;;;;;;;;;;18.90;65.70;;;14.78;100.00;95358.00;5011779;28;19913;-47
2022/09/03 05:46:30;;;;;;;;;;;18.90;65.80;;;14.84;100.00;95359.50;4990241;28;19913;-47
2022/09/03 05:49:00;;;;;;;;;;;18.90;65.90;;;14.89;100.00;95355.94;5002653;28;19996;-46
2022/09/03 05:51:27;;;;;;;;;;;18.90;65.90;;;14.89;100.00;95358.63;4982579;28;20334;-45
2022/09/03 05:53:54;;;;;;;;;;;18.90;65.90;;;14.92;100.00;95358.81;4991358;28;20003;-44
2022/09/03 05:56:23;;;;;;;;;;;18.90;65.90;;;14.95;100.00;95352.84;5017797;28;19917;-45
2022/09/03 05:58:52;;;;;;;;;;;19.00;65.80;;;14.97;100.00;95352.53;5008473;28;19936;-44
2022/09/03 06:01:23;;;;;;;;;;;19.00;65.80;;;15.00;100.00;95344.69;4992774;28;19909;-46
2022/09/03 06:03:59;;;;;;;;;;;19.00;65.80;;;15.02;100.00;95333.69;5000969;28;20410;-50
2022/09/03 06:06:27;;;;;;;;;;;19.10;65.70;;;15.03;100.00;95332.56;4973256;28;19917;-50
2022/09/03 06:09:03;;;;;;;;;;;19.10;65.60;;;14.99;100.00;95329.69;4981390;28;19932;-50
2022/09/03 06:11:31;;;;;;;;;;;19.10;65.50;;;15.02;100.00;95334.47;4960857;28;19916;-46
2022/09/03 06:14:04;;;;;;;;;;;19.10;65.50;;;15.01;100.00;95332.88;5019229;28;20284;-46
2022/09/03 06:16:32;;;;;;;;;;;19.10;65.50;;;14.94;100.00;95323.63;5009525;28;19912;-44
2022/09/03 06:19:06;;;;;;;;;;;19.10;65.40;;;14.97;100.00;95313.09;5022706;28;19909;-46
2022/09/03 06:21:31;;;;;;;;;;;19.10;65.40;;;14.96;100.00;95305.38;4988406;28;19913;-47
2022/09/03 06:23:58;;;;;;;;;;;19.20;65.40;;;14.95;100.00;95299.22;5020838;28;19916;-47
2022/09/03 06:26:26;;;;;;;;;;;19.20;65.40;;;15.01;100.00;95305.25;5021196;28;20320;-46
2022/09/03 06:28:53;;;;;;;;;;;19.30;65.40;;;15.09;100.00;95311.81;5024926;28;19913;-46
2022/09/03 06:31:21;;;;;;;;;;;19.40;65.30;;;15.13;100.00;95300.19;5006663;28;19917;-46
2022/09/03 06:33:47;;;;;;;;;;;19.50;65.20;;;15.14;99.46;95296.41;4996616;28;19914;-46
2022/09/03 06:36:16;;;;;;;;;;;19.60;65.10;;;15.28;99.53;95304.44;5027311;28;20004;-44
2022/09/03 06:38:44;;;;;;;;;;;19.70;65.80;;;15.41;99.61;95305.50;5005591;28;20435;-44
2022/09/03 06:41:25;;;;;;;;;;;19.80;64.80;;;15.50;98.80;95317.13;5029006;28;19909;-45
2022/09/03 06:44:02;;;;;;;;;;;20.00;64.70;;;15.56;98.42;95304.38;5026948;28;19945;-46
2022/09/03 06:46:34;;;;;;;;;;;20.00;64.50;;;15.65;98.30;95308.72;5016415;28;20012;-46
2022/09/03 06:49:01;;;;;;;;;;;20.20;64.40;;;15.75;98.32;95302.38;4976264;28;20285;-48
2022/09/03 06:51:30;;;;;;;;;;;20.30;64.30;;;15.98;98.90;95299.69;4977326;28;20426;-46
2022/09/03 06:54:06;;;;;;;;;;;20.60;64.30;;;16.11;97.54;95304.22;5010405;28;20003;-46
2022/09/03 06:56:34;;;;;;;;;;;20.80;64.20;;;16.31;97.01;95298.31;5027044;28;19909;-46
2022/09/03 06:59:09;;;;;;;;;;;21.00;64.00;;;16.41;94.87;95298.06;5011759;28;19959;-47
2022/09/03 07:01:39;;;;;;;;;;;21.20;63.90;;;16.63;95.34;95294.53;5012203;28;19916;-47
2022/09/03 07:04:08;;;;;;;;;;;21.50;63.70;;;16.90;95.19;95297.38;4994381;28;19909;-45
2022/09/03 07:06:38;;;;;;;;;;;21.70;63.50;;;17.25;93.97;95292.88;5013426;28;19913;-45
2022/09/03 07:09:08;;;;;;;;;;;22.20;64.10;;;17.58;92.25;95298.63;5011400;28;20357;-47
2022/09/03 07:11:45;;;;;;;;;;;22.50;63.00;;;17.99;89.87;95287.41;4981567;28;19926;-46
2022/09/03 07:14:18;;;;;;;;;;;23.00;62.70;;;18.33;88.84;95284.97;5014434;28;19913;-45
2022/09/03 07:16:45;;;;;;;;;;;23.30;62.50;;;18.56;87.35;95286.34;5011919;28;19915;-45
2022/09/03 07:19:12;;;;;;;;;;;23.50;62.20;;;18.67;80.85;95282.16;4961449;28;23729;-47
2022/09/03 07:21:41;;;;;;;;;;;23.70;61.80;;;19.02;80.84;95273.97;5011649;28;19909;-45
2022/09/03 07:24:09;;;;;;;;;;;24.10;61.30;;;19.47;81.17;95283.41;4995287;28;19909;-48
2022/09/03 07:26:45;;;;;;;;;;;24.60;60.90;;;19.76;77.28;95275.25;5011546;28;19913;-48
2022/09/03 07:29:15;;;;;;;;;;;24.90;60.50;;;20.10;73.93;95279.56;5027595;28;19909;-45
2022/09/03 07:31:42;;;;;;;;;;;25.30;60.00;;;20.28;75.35;95284.81;5012840;28;19913;-47
2022/09/03 07:34:11;;;;;;;;;;;25.60;59.60;;;20.43;74.83;95291.50;4962015;28;19952;-47
2022/09/03 07:36:45;;;;;;;;;;;25.70;59.40;;;20.65;73.56;95290.34;5012705;28;19936;-47
2022/09/03 07:39:14;;;;;;;;;;;25.90;59.00;;;21.03;73.97;95295.47;5012074;28;19913;-46
2022/09/03 07:41:44;;;;;;;;;;;26.40;58.80;;;21.22;71.26;95292.97;5013786;28;19909;-46
2022/09/03 07:44:14;;;;;;;;;;;26.80;58.20;;;21.58;68.71;95298.72;5020518;28;19933;-47
2022/09/03 07:46:40;;;;;;;;;;;27.20;57.80;;;21.89;69.65;95298.09;5030271;28;19916;-46
2022/09/03 07:49:11;;;;;;;;;;;27.70;57.40;;;22.16;65.86;95302.00;5009343;28;19912;-50
2022/09/03 07:51:38;;;;;;;;;;;28.20;56.90;;;22.60;65.29;95299.28;5008098;28;19951;-46
2022/09/03 07:54:10;;;;;;;;;;;28.70;56.40;;;22.96;62.26;95302.94;4997747;28;20430;-46
2022/09/03 07:56:41;;;;;;;;;;;29.20;56.00;;;23.36;60.33;95301.94;5009058;28;19909;-46
2022/09/03 07:59:08;;;;;;;;;;;29.60;55.40;;;23.32;58.49;95291.78;5016789;28;19916;-47
2022/09/03 08:01:37;;;;;;;;;;;29.80;54.80;;;23.37;57.83;95298.06;5006937;28;19917;-47
2022/09/03 08:04:05;;;;;;;;;;;30.00;54.20;;;23.65;58.29;95289.78;5013882;28;19917;-46
2022/09/03 08:06:34;;;;;;;;;;;30.20;53.80;;;23.83;55.60;95301.06;5001608;28;19958;-48
2022/09/03 08:09:10;;;;;;;;;;;30.40;53.40;;;24.17;54.88;95302.16;5003741;28;19916;-46
2022/09/03 08:11:39;;;;;;;;;;;30.50;53.00;;;24.63;54.54;95299.53;5008523;28;20012;-47
2022/09/03 08:14:09;;;;;;;;;;;30.80;52.80;;;25.05;57.25;95307.69;4993454;28;20390;-50
2022/09/03 08:16:43;;;;;;;;;;;31.10;52.50;;;25.59;55.05;95312.06;4988539;28;19948;-46
2022/09/03 08:19:10;;;;;;;;;;;31.50;52.40;;;25.90;52.71;95314.84;4988470;28;19920;-46
2022/09/03 08:21:37;;;;;;;;;;;32.00;51.80;;;25.72;52.24;95309.13;4972345;28;19913;-47
2022/09/03 08:24:03;;;;;;;;;;;32.40;51.10;;;25.89;54.63;95307.84;5002776;28;20007;-46
2022/09/03 08:26:35;;;;;;;;;;;32.60;50.70;;;25.96;50.03;95316.09;4980749;28;19917;-49
2022/09/03 08:29:03;;;;;;;;;;;32.70;50.30;;;26.05;51.75;95311.94;4991062;28;19913;-49
2022/09/03 08:31:31;;;;;;;;;;;32.50;50.00;;;26.00;52.24;95304.06;4974580;28;19920;-50
2022/09/03 08:34:02;;;;;;;;;;;32.40;49.70;;;26.00;53.16;95311.47;4986160;28;20392;-50
2022/09/03 08:36:32;;;;;;;;;;;32.20;49.60;;;26.12;52.24;95315.91;4978488;28;19909;-47
2022/09/03 08:39:03;;;;;;;;;;;32.40;49.50;;;26.00;54.26;95319.66;4975258;28;20289;-50
2022/09/03 08:41:50;;;;;;;;;;;32.70;49.30;;;25.64;50.57;95321.09;4997136;28;21171;-48
2022/09/03 08:44:29;;;;;;;;;;;32.80;48.90;;;25.85;49.61;95326.84;4977262;28;19909;-51
2022/09/03 08:47:10;;;;;;;;;;;32.90;48.60;;;25.75;49.62;95336.44;4994062;28;19909;-46
2022/09/03 08:49:54;;;;;;;;;;;32.80;48.40;;;26.05;49.14;95347.41;5002591;28;19944;-50
2022/09/03 08:52:31;;;;;;;;;;;33.00;48.00;;;26.13;45.82;95342.03;4996352;28;20323;-45
2022/09/03 08:55:15;;;;;;;;;;;33.40;47.50;;;26.13;47.69;95350.22;4997072;28;19917;-48
2022/09/03 08:57:49;;;;;;;;;;;33.60;47.10;;;26.04;47.64;95353.22;4982434;28;19952;-51
2022/09/03 09:00:17;;;;;;;;;;;33.60;46.90;;;26.09;50.91;95350.19;4974566;28;19917;-49
2022/09/03 09:03:41;;;;;;;;;;;33.40;46.70;;;26.02;48.93;95356.34;4972670;28;19940;-49
2022/09/03 09:06:15;;;;;;;;;;;33.30;46.60;;;26.11;48.94;95353.34;4945267;28;19913;-46
2022/09/03 09:09:20;;;;;;;;;;;33.40;46.30;;;26.06;49.25;95359.88;4971237;28;19957;-46
2022/09/03 09:12:19;;;;;;;;;;;33.50;46.90;;;26.14;50.82;95360.00;4977062;28;19921;-47
2022/09/03 09:15:16;;;;;;;;;;;33.40;46.10;;;25.87;49.94;95354.56;4996967;28;19943;-51
2022/09/03 09:18:17;;;;;;;;;;;33.30;45.80;;;25.96;51.94;95365.22;5009851;28;20298;-48
2022/09/03 09:21:19;;;;;;;;;;;33.30;45.70;;;25.62;52.58;95378.72;5010234;28;19913;-50
2022/09/03 09:23:48;;;;;;;;;;;32.90;45.70;;;25.09;53.91;95389.50;4994792;28;19916;-47
2022/09/03 09:26:20;;;;;;;;;;;32.20;45.70;;;24.86;55.05;95394.91;4991979;28;19919;-48
2022/09/03 09:28:56;;;;;;;;;;;31.70;46.10;;;24.15;54.64;95389.56;5010626;28;19909;-46
2022/09/03 09:31:27;;;;;;;;;;;31.10;46.30;;;23.73;60.49;95384.78;4993162;28;19939;-46
2022/09/03 09:33:53;;;;;;;;;;;30.60;46.40;;;23.37;63.01;95398.63;4992194;28;19913;-48
2022/09/03 09:36:22;;;;;;;;;;;30.10;46.50;;;23.04;65.06;95405.97;4991607;28;19927;-51
2022/09/03 09:38:51;;;;;;;;;;;29.60;46.70;;;22.82;66.55;95412.72;5001934;28;20020;-47
2022/09/03 09:41:22;;;;;;;;;;;29.10;47.10;;;22.64;68.70;95428.53;5026092;28;19916;-47
2022/09/03 09:44:02;;;;;;;;;;;28.60;47.50;;;22.38;70.12;95444.47;4988618;28;20342;-51
2022/09/03 09:46:39;;;;;;;;;;;28.20;48.00;;;22.08;70.01;95436.56;4991386;28;19909;-46
2022/09/03 09:49:34;;;;;;;;;;;27.80;48.60;;;21.82;71.10;95449.72;4993197;28;19909;-46
2022/09/03 09:52:13;;;;;;;;;;;27.40;49.00;;;21.51;75.19;95455.69;4995341;28;19956;-49
2022/09/03 09:54:44;;;;;;;;;;;27.00;49.40;;;20.95;74.83;95459.56;5000122;28;20446;-48
2022/09/03 09:57:17;;;;;;;;;;;26.60;49.70;;;20.63;74.90;95457.66;4981242;28;19932;-47
2022/09/03 09:59:46;;;;;;;;;;;26.30;50.50;;;20.07;73.99;95466.00;4994530;28;19963;-50
2022/09/03 10:02:22;;;;;;;;;;;25.90;50.70;;;19.89;73.71;95465.28;4973188;28;19913;-50
2022/09/03 10:04:51;;;;;;;;;;;25.60;50.30;;;19.56;73.45;95465.91;5008123;28;19917;-47
2022/09/03 10:07:31;;;;;;;;;;;25.40;50.50;;;19.55;74.36;95485.91;5010687;28;20008;-49
2022/09/03 10:10:12;;;;;;;;;;;25.00;50.80;;;19.42;72.57;95482.31;4991235;28;19924;-46
2022/09/03 10:12:48;;;;;;;;;;;24.70;51.20;;;19.29;73.97;95488.72;4994599;28;20020;-47
2022/09/03 10:15:38;;;;;;;;;;;24.50;51.50;;;19.17;74.02;95491.28;5001021;28;19925;-48
2022/09/03 10:18:31;;;;;;;;;;;24.30;51.70;;;19.26;75.20;95494.75;5015059;28;20036;-46
2022/09/03 10:21:36;;;;;;;;;;;24.20;52.00;;;19.25;75.62;95484.28;5024543;28;19995;-47
2022/09/03 10:24:51;;;;;;;;;;;24.10;52.30;;;19.02;75.86;95491.78;5015960;28;20331;-46
2022/09/03 10:27:20;;;;;;;;;;;24.00;52.50;;;18.95;75.98;95494.97;5009846;28;19913;-47
2022/09/03 10:29:49;;;;;;;;;;;24.00;52.70;;;18.97;79.39;95497.38;4977344;28;19909;-47
2022/09/03 10:32:33;;;;;;;;;;;24.00;52.80;;;18.83;79.14;95492.91;4976247;28;19909;-46
2022/09/03 10:35:30;;;;;;;;;;;24.00;52.70;;;18.95;79.36;95474.16;5009486;28;19909;-49
2022/09/03 10:38:15;;;;;;;;;;;24.10;52.80;;;19.05;78.81;95473.03;4982167;28;19909;-47
2022/09/03 10:40:53;;;;;;;;;;;24.10;52.90;;;19.01;77.58;95463.22;4999949;28;19916;-51
2022/09/03 10:43:57;;;;;;;;;;;24.20;52.80;;;19.31;78.61;95472.19;5006777;28;20257;-47
2022/09/03 10:46:28;;;;;;;;;;;24.40;52.90;;;19.47;77.23;95475.16;5004338;28;19917;-46
2022/09/03 10:49:20;;;;;;;;;;;24.40;53.00;;;19.47;77.22;95469.75;5028243;28;20359;-48
2022/09/03 10:52:19;;;;;;;;;;;24.40;53.10;;;19.53;77.12;95473.88;5018238;28;19928;-47
2022/09/03 10:55:13;;;;;;;;;;;24.50;53.20;;;19.41;79.31;95472.63;4998094;28;20275;-47
2022/09/03 10:57:54;;;;;;;;;;;24.50;53.20;;;19.41;79.01;95474.53;5012173;28;20042;-48
2022/09/03 11:00:21;;;;;;;;;;;24.70;53.20;;;19.49;80.40;95471.03;5006161;28;19913;-46
2022/09/03 11:03:33;;;;;;;;;;;24.80;53.10;;;19.36;78.18;95472.78;5010871;28;19917;-46
2022/09/03 11:06:25;;;;;;;;;;;24.80;53.10;;;19.02;79.05;95471.00;5011633;28;19916;-46
2022/09/03 11:08:59;;;;;;;;;;;24.60;53.00;;;18.85;78.63;95466.41;5012168;28;19916;-47
2022/09/03 11:11:58;;;;;;;;;;;24.40;53.00;;;18.75;80.26;95468.66;5013128;28;20313;-52
2022/09/03 11:14:45;;;;;;;;;;;24.50;53.10;;;18.98;80.70;95482.75;5010459;28;19909;-49
2022/09/03 11:17:39;;;;;;;;;;;24.60;53.20;;;18.73;79.27;95471.66;5040581;23;20288;-47
2022/09/03 11:20:24;;;;;;;;;;;24.70;53.20;;;19.04;78.02;95476.84;5002403;28;20267;-45
2022/09/03 11:23:06;;;;;;;;;;;24.80;53.10;;;19.22;80.77;95476.84;5027926;28;19947;-49
2022/09/03 11:25:41;;;;;;;;;;;25.10;53.10;;;19.39;82.19;95469.44;5008363;28;20027;-51
2022/09/03 11:28:27;;;;;;;;;;;25.30;52.90;;;19.50;78.64;95474.53;5006285;28;19917;-49
2022/09/03 11:31:22;;;;;;;;;;;25.50;52.90;;;19.17;76.79;95461.59;4995415;28;19948;-46
2022/09/03 11:34:12;;;;;;;;;;;25.70;52.40;;;19.13;72.79;95447.94;4972823;28;20004;-48
2022/09/03 11:36:39;;;;;;;;;;;25.70;52.00;;;19.33;75.19;95435.63;5001630;28;19913;-49
2022/09/03 11:39:25;;;;;;;;;;;25.60;51.90;;;19.50;77.83;95420.50;5019642;28;20015;-46
2022/09/03 11:42:21;;;;;;;;;;;25.70;51.90;;;19.86;74.84;95430.81;4990197;28;19916;-46
2022/09/03 11:44:53;;;;;;;;;;;26.00;52.10;;;19.80;75.88;95434.81;5008128;28;19912;-45
2022/09/03 11:47:18;;;;;;;;;;;26.20;52.00;;;19.90;76.25;95439.06;4988976;28;19909;-52
2022/09/03 11:49:51;;;;;;;;;;;26.30;52.00;;;19.76;73.58;95445.50;5009007;28;20019;-45
2022/09/03 11:52:31;;;;;;;;;;;26.70;51.80;;;20.21;72.31;95435.97;4996583;28;19920;-47
2022/09/03 11:55:00;;;;;;;;;;;27.10;51.50;;;20.94;69.87;95435.56;5007869;28;19936;-51
2022/09/03 11:57:32;;;;;;;;;;;27.90;51.20;;;21.48;65.24;95428.13;4982211;28;19979;-46
2022/09/03 12:00:20;;;;;;;;;;;28.80;51.40;;;21.69;63.94;95430.72;4992494;28;19916;-51